Time;durP1;ratioP1;P1;durP2;ratioP2;P2;SDS_P1;SDS_P2;PMS_P1;PMS_P2;Temp;Humidity;BMP_temperature;BMP_pressure;BME280_temperature;BME280_humidity;BME280_pressure;Samples;Min_cycle;Max_cycle;Signal;HPM_P1;HPM_P2
2023/11/04 00:01:40;;;;;;;6.93;3.67;;;;;;;8.20;100.00;98481.69;6079047;19;20419;-70
2023/11/04 00:03:45;;;;;;;10.95;4.85;;;;;;;8.26;100.00;98478.66;6078838;19;20024;-70
2023/11/04 00:05:50;;;;;;;11.77;4.47;;;;;;;8.27;100.00;98472.50;6080181;19;20023;-70
2023/11/04 00:07:58;;;;;;;11.57;5.22;;;;;;;8.36;100.00;98474.44;6079769;19;20025;-71
2023/11/04 00:10:03;;;;;;;15.90;5.47;;;;;;;8.34;100.00;98473.72;6079482;19;20423;-70
2023/11/04 00:12:06;;;;;;;11.43;4.30;;;;;;;8.36;100.00;98482.31;6076418;19;20555;-70
2023/11/04 00:14:10;;;;;;;8.95;4.80;;;;;;;8.36;100.00;98469.22;6078895;19;21201;-69
2023/11/04 00:16:15;;;;;;;11.45;4.38;;;;;;;8.36;100.00;98460.53;6077847;19;20015;-69
2023/11/04 00:18:23;;;;;;;17.33;4.68;;;;;;;8.35;100.00;98469.34;6074433;19;20010;-69
2023/11/04 00:20:28;;;;;;;9.20;4.57;;;;;;;8.41;100.00;98473.34;6079973;19;20010;-71
2023/11/04 00:22:48;;;;;;;10.27;4.50;;;;;;;8.40;100.00;98474.25;6076701;19;20596;-71
2023/11/04 00:24:54;;;;;;;8.77;4.63;;;;;;;8.40;100.00;98471.66;6072451;19;20936;-69
2023/11/04 00:26:59;;;;;;;10.80;4.80;;;;;;;8.40;100.00;98463.81;6077858;19;20405;-70
2023/11/04 00:29:05;;;;;;;10.20;4.47;;;;;;;8.42;100.00;98475.00;6078965;19;20003;-70
2023/11/04 00:31:11;;;;;;;9.93;4.80;;;;;;;8.45;100.00;98480.03;6076260;19;20656;-70
2023/11/04 00:33:16;;;;;;;10.43;4.45;;;;;;;8.45;100.00;98474.78;6078781;19;20011;-71
2023/11/04 00:35:25;;;;;;;9.10;4.70;;;;;;;8.47;100.00;98467.66;6076042;19;20003;-70
2023/11/04 00:37:27;;;;;;;10.60;5.18;;;;;;;8.45;100.00;98474.78;6076501;19;20691;-70
2023/11/04 00:39:32;;;;;;;12.13;5.18;;;;;;;8.46;100.00;98468.63;6076494;19;20573;-71
2023/11/04 00:41:34;;;;;;;12.57;5.28;;;;;;;8.47;100.00;98467.66;6078737;19;20010;-72
2023/11/04 00:43:39;;;;;;;14.77;5.25;;;;;;;8.49;100.00;98465.78;6079708;19;20006;-73
2023/11/04 00:45:44;;;;;;;14.82;5.47;;;;;;;8.48;100.00;98461.50;6079761;19;20031;-71
2023/11/04 00:47:49;;;;;;;11.93;5.35;;;;;;;8.49;100.00;98465.78;6077924;19;20086;-70
2023/11/04 00:49:54;;;;;;;14.48;5.85;;;;;;;8.52;100.00;98469.03;6077909;19;20681;-69
2023/11/04 00:52:09;;;;;;;10.50;5.68;;;;;;;8.56;100.00;98461.81;6077865;19;20007;-70
2023/11/04 00:54:11;;;;;;;14.95;5.60;;;;;;;8.56;100.00;98460.03;6074325;19;20017;-70
2023/11/04 00:56:16;;;;;;;11.45;5.25;;;;;;;8.58;100.00;98459.88;6077073;19;20018;-70
2023/11/04 00:58:21;;;;;;;12.10;5.55;;;;;;;8.59;100.00;98458.97;6073571;19;20006;-69
2023/11/04 01:00:26;;;;;;;16.95;5.72;;;;;;;8.61;100.00;98462.31;6076241;19;20628;-69
2023/11/04 01:02:32;;;;;;;12.55;6.25;;;;;;;8.60;100.00;98463.25;6079197;19;20051;-71
2023/11/04 01:04:36;;;;;;;11.43;5.90;;;;;;;8.61;100.00;98459.69;6075785;19;20374;-69
2023/11/04 01:06:41;;;;;;;9.75;5.30;;;;;;;8.64;100.00;98464.72;6077833;19;20047;-69
2023/11/04 01:08:49;;;;;;;17.42;5.60;;;;;;;8.64;100.00;98469.97;6076189;19;20484;-70
2023/11/04 01:10:54;;;;;;;13.30;5.38;;;;;;;8.68;100.00;98465.31;6078617;19;20034;-70
2023/11/04 01:13:00;;;;;;;11.55;5.32;;;;;;;8.67;100.00;98459.25;6078438;19;20442;-69
2023/11/04 01:15:05;;;;;;;12.25;5.68;;;;;;;8.71;100.00;98460.69;6072984;19;20002;-69
2023/11/04 01:17:07;;;;;;;13.25;5.85;;;;;;;8.68;100.00;98460.91;6077621;19;20654;-69
2023/11/04 01:19:13;;;;;;;8.35;5.53;;;;;;;8.73;100.00;98469.28;6077070;19;20078;-70
2023/11/04 01:21:20;;;;;;;13.52;5.65;;;;;;;8.70;100.00;98458.22;6076167;19;20083;-69
2023/11/04 01:23:25;;;;;;;14.13;5.35;;;;;;;8.73;100.00;98450.13;6078162;19;20026;-70
2023/11/04 01:25:32;;;;;;;11.73;6.70;;;;;;;8.72;100.00;98449.31;6077723;19;20027;-71
2023/11/04 01:27:35;;;;;;;15.88;6.88;;;;;;;8.71;100.00;98450.22;6076335;19;20026;-73
2023/11/04 01:29:40;;;;;;;9.98;5.97;;;;;;;8.75;100.00;98456.09;6078129;19;20030;-70
2023/11/04 01:31:45;;;;;;;12.82;6.70;;;;;;;8.81;100.00;98462.69;6079010;19;20014;-69
2023/11/04 01:33:47;;;;;;;14.43;5.85;;;;;;;8.78;100.00;98458.50;6072186;19;20033;-68
2023/11/04 01:35:52;;;;;;;10.48;5.60;;;;;;;8.77;100.00;98460.28;6077920;19;20357;-71
2023/11/04 01:37:57;;;;;;;16.65;5.88;;;;;;;8.82;100.00;98461.72;6073462;19;20414;-70
2023/11/04 01:40:02;;;;;;;12.90;6.28;;;;;;;8.80;100.00;98454.00;6078481;19;20016;-70
2023/11/04 01:42:10;;;;;;;12.23;6.85;;;;;;;8.82;100.00;98456.47;6076037;19;20507;-69
2023/11/04 01:44:15;;;;;;;16.45;7.40;;;;;;;8.78;100.00;98448.03;6077112;19;20839;-70
2023/11/04 01:46:25;;;;;;;13.40;7.97;;;;;;;8.80;100.00;98451.38;6076207;19;20021;-70
2023/11/04 01:48:27;;;;;;;15.70;7.15;;;;;;;8.79;100.00;98454.91;6077572;19;20006;-69
2023/11/04 01:50:32;;;;;;;12.63;6.15;;;;;;;8.83;100.00;98445.09;6072841;19;20010;-69
2023/11/04 01:52:40;;;;;;;16.92;7.35;;;;;;;8.85;100.00;98451.06;6073048;19;20013;-71
2023/11/04 01:54:45;;;;;;;15.35;6.40;;;;;;;8.84;100.00;98444.13;6076125;19;20460;-70
2023/11/04 01:56:51;;;;;;;21.17;7.40;;;;;;;8.86;100.00;98447.47;6070399;19;20045;-70
2023/11/04 01:59:00;;;;;;;13.70;7.50;;;;;;;8.89;100.00;98444.63;6076251;19;20038;-70
2023/11/04 02:01:04;;;;;;;15.00;6.25;;;;;;;8.86;100.00;98448.31;6075757;19;20012;-72
2023/11/04 02:03:09;;;;;;;14.20;7.63;;;;;;;8.83;100.00;98440.69;6076724;19;20003;-71
2023/11/04 02:05:14;;;;;;;16.77;7.10;;;;;;;8.87;100.00;98438.66;6074927;19;20014;-71
2023/11/04 02:07:17;;;;;;;14.02;7.03;;;;;;;8.88;100.00;98438.56;6074501;19;20030;-70
2023/11/04 02:09:22;;;;;;;18.58;7.68;;;;;;;8.86;100.00;98442.25;6075655;19;20017;-69
2023/11/04 02:11:27;;;;;;;12.65;6.68;;;;;;;8.86;100.00;98437.00;6072291;19;20020;-69
2023/11/04 02:13:32;;;;;;;16.02;6.72;;;;;;;8.85;100.00;98440.56;6076173;19;20042;-70
2023/11/04 02:15:39;;;;;;;15.20;7.32;;;;;;;8.81;100.00;98434.69;6072008;19;20003;-70
2023/11/04 02:17:44;;;;;;;11.77;6.55;;;;;;;8.86;100.00;98429.97;6074662;19;20002;-70
2023/11/04 02:19:49;;;;;;;13.82;6.55;;;;;;;8.83;100.00;98434.59;6073223;19;20078;-70
2023/11/04 02:21:55;;;;;;;16.95;7.15;;;;;;;8.81;100.00;98433.88;6075238;19;20500;-69
2023/11/04 02:24:00;;;;;;;15.30;8.55;;;;;;;8.83;100.00;98434.59;6076776;19;20011;-70
2023/11/04 02:26:07;;;;;;;15.98;7.15;;;;;;;8.82;100.00;98438.16;6075167;19;20034;-70
2023/11/04 02:28:10;;;;;;;15.73;6.40;;;;;;;8.79;100.00;98434.84;6069323;19;20633;-71
2023/11/04 02:30:15;;;;;;;12.07;6.13;;;;;;;8.79;100.00;98431.34;6074296;19;20013;-71
2023/11/04 02:32:20;;;;;;;13.32;5.72;;;;;;;8.80;100.00;98440.91;6073456;19;20006;-69
2023/11/04 02:34:25;;;;;;;14.32;7.10;;;;;;;8.82;100.00;98425.06;6077411;19;20007;-69
2023/11/04 02:36:35;;;;;;;14.00;6.10;;;;;;;8.83;100.00;98427.56;6076434;19;20042;-69
2023/11/04 02:38:43;;;;;;;14.10;6.22;;;;;;;8.79;100.00;98426.97;6075554;19;20005;-68
2023/11/04 02:40:48;;;;;;;14.75;6.45;;;;;;;8.70;100.00;98422.38;6073793;19;20414;-69
2023/11/04 02:42:54;;;;;;;13.05;5.90;;;;;;;8.67;100.00;98422.59;6076217;19;20029;-70
2023/11/04 02:44:56;;;;;;;17.02;6.18;;;;;;;8.68;100.00;98426.06;6072181;19;20696;-70
2023/11/04 02:47:01;;;;;;;17.63;6.85;;;;;;;8.66;100.00;98420.94;6076611;19;20040;-69
2023/11/04 02:49:06;;;;;;;11.63;5.18;;;;;;;8.67;100.00;98417.38;6073839;19;20018;-69
2023/11/04 02:51:11;;;;;;;16.08;6.68;;;;;;;8.60;100.00;98413.50;6076582;19;20038;-69
2023/11/04 02:53:16;;;;;;;12.38;5.55;;;;;;;8.57;100.00;98417.19;6072160;19;20427;-72
2023/11/04 02:55:23;;;;;;;14.85;6.32;;;;;;;8.58;100.00;98412.78;6074559;19;20522;-70
2023/11/04 02:57:26;;;;;;;11.85;6.18;;;;;;;8.52;100.00;98402.75;6069425;19;20347;-71
2023/11/04 02:59:31;;;;;;;15.98;6.97;;;;;;;8.48;100.00;98403.94;6071749;19;20006;-70
2023/11/04 03:01:36;;;;;;;15.40;5.72;;;;;;;8.46;100.00;98408.44;6076521;19;21149;-70
2023/11/04 03:03:41;;;;;;;12.90;6.28;;;;;;;8.41;100.00;98408.75;6073796;19;20003;-69
2023/11/04 03:05:46;;;;;;;11.77;6.07;;;;;;;8.41;100.00;98402.69;6071669;19;20010;-70
2023/11/04 03:07:51;;;;;;;19.08;6.63;;;;;;;8.36;100.00;98390.72;6071824;19;20250;-70
2023/11/04 03:09:55;;;;;;;11.32;5.85;;;;;;;8.38;100.00;98398.47;6074608;19;20006;-70
2023/11/04 03:12:03;;;;;;;11.10;6.30;;;;;;;8.34;100.00;98395.22;6069348;19;20034;-70
2023/11/04 03:14:08;;;;;;;25.80;7.05;;;;;;;8.27;100.00;98388.75;6072776;19;20305;-70
2023/11/04 03:16:21;;;;;;;14.02;5.97;;;;;;;8.31;100.00;98384.13;6072890;19;20585;-70
2023/11/04 03:18:26;;;;;;;20.63;7.20;;;;;;;8.29;100.00;98392.13;6074650;19;20006;-70
2023/11/04 03:20:30;;;;;;;12.43;6.18;;;;;;;8.25;100.00;98395.88;6074610;19;20705;-70
2023/11/04 03:22:36;;;;;;;12.40;6.13;;;;;;;8.28;100.00;98385.19;6072358;19;20010;-70
2023/11/04 03:24:42;;;;;;;13.88;7.28;;;;;;;8.25;100.00;98388.03;6074018;19;20016;-70
2023/11/04 03:26:48;;;;;;;16.70;6.88;;;;;;;8.27;100.00;98387.94;6066343;19;20011;-70
2023/11/04 03:28:55;;;;;;;18.95;6.03;;;;;;;8.35;100.00;98393.47;6069768;19;20561;-70
2023/11/04 03:31:00;;;;;;;13.45;6.30;;;;;;;8.39;100.00;98388.84;6075331;19;20033;-71
2023/11/04 03:33:05;;;;;;;15.63;6.88;;;;;;;8.45;100.00;98384.03;6078350;19;20081;-72
2023/11/04 03:35:11;;;;;;;15.38;7.10;;;;;;;8.48;100.00;98393.47;6076799;19;20045;-71
2023/11/04 03:37:17;;;;;;;14.27;7.00;;;;;;;8.51;100.00;98386.22;6080595;19;20037;-70
2023/11/04 03:39:21;;;;;;;17.63;7.88;;;;;;;8.49;100.00;98387.28;6082289;19;20011;-69
2023/11/04 03:41:26;;;;;;;21.38;8.98;;;;;;;8.47;100.00;98378.69;6079248;19;20003;-71
2023/11/04 03:43:31;;;;;;;24.13;9.10;;;;;;;8.49;100.00;98369.78;6077330;19;21582;-70
2023/11/04 03:45:39;;;;;;;15.65;7.63;;;;;;;8.54;100.00;98374.69;6078822;19;20006;-71
2023/11/04 03:47:44;;;;;;;20.30;8.73;;;;;;;8.51;100.00;98370.50;6075272;19;20477;-69
2023/11/04 03:49:49;;;;;;;20.52;7.70;;;;;;;8.51;100.00;98370.50;6077598;19;20034;-71
2023/11/04 03:51:56;;;;;;;22.13;8.32;;;;;;;8.44;100.00;98363.22;6081644;19;20083;-71
2023/11/04 03:53:59;;;;;;;13.38;6.35;;;;;;;8.46;100.00;98369.16;6077426;19;20534;-71
2023/11/04 03:56:08;;;;;;;16.52;7.95;;;;;;;8.45;100.00;98372.72;6075829;19;20058;-71
2023/11/04 03:58:13;;;;;;;15.23;7.00;;;;;;;8.45;100.00;98372.72;6071195;19;20506;-71
2023/11/04 04:00:20;;;;;;;14.85;8.20;;;;;;;8.41;100.00;98366.88;6076915;19;20347;-70
2023/11/04 04:02:27;;;;;;;13.90;6.38;;;;;;;8.42;100.00;98365.91;6075079;19;20007;-69
2023/11/04 04:04:34;;;;;;;18.25;6.75;;;;;;;8.44;100.00;98363.22;6078518;19;20086;-70
2023/11/04 04:06:37;;;;;;;15.88;6.85;;;;;;;8.40;100.00;98361.75;6076680;19;20015;-71
2023/11/04 04:08:42;;;;;;;15.57;6.00;;;;;;;8.39;100.00;98354.81;6077728;19;20086;-72
2023/11/04 04:10:47;;;;;;;17.70;5.97;;;;;;;8.42;100.00;98354.63;6075115;19;20474;-68
2023/11/04 04:12:52;;;;;;;14.85;5.88;;;;;;;8.41;100.00;98358.19;6077397;19;20046;-69
2023/11/04 04:14:57;;;;;;;18.20;6.35;;;;;;;8.41;100.00;98352.97;6076832;19;20086;-70
2023/11/04 04:17:02;;;;;;;15.68;6.30;;;;;;;8.46;100.00;98345.63;6073053;19;20003;-71
2023/11/04 04:19:12;;;;;;;19.30;8.18;;;;;;;8.42;100.00;98350.22;6075706;19;20173;-69
2023/11/04 04:21:16;;;;;;;19.23;7.10;;;;;;;8.41;100.00;98343.31;6078579;19;20021;-69
2023/11/04 04:23:21;;;;;;;18.13;7.53;;;;;;;8.44;100.00;98348.34;6074103;19;20103;-71
2023/11/04 04:25:26;;;;;;;13.48;6.70;;;;;;;8.42;100.00;98339.75;6077113;19;20505;-69
2023/11/04 04:27:31;;;;;;;16.02;7.70;;;;;;;8.42;100.00;98349.38;6075180;19;20014;-69
2023/11/04 04:29:36;;;;;;;18.27;7.60;;;;;;;8.46;100.00;98341.22;6073778;19;20495;-69
2023/11/04 04:31:42;;;;;;;19.17;7.57;;;;;;;8.45;100.00;98339.56;6077714;19;20266;-69
2023/11/04 04:33:48;;;;;;;16.85;7.32;;;;;;;8.44;100.00;98337.88;6078458;19;20006;-69
2023/11/04 04:35:55;;;;;;;16.98;6.63;;;;;;;8.39;100.00;98344.34;6077304;19;20015;-69
2023/11/04 04:38:01;;;;;;;15.88;7.05;;;;;;;8.38;100.00;98335.66;6077467;19;20006;-69
2023/11/04 04:40:07;;;;;;;20.65;8.30;;;;;;;8.40;100.00;98340.81;6076321;19;20657;-69
2023/11/04 04:42:12;;;;;;;22.17;8.80;;;;;;;8.43;100.00;98330.13;6077183;19;20010;-68
2023/11/04 04:44:19;;;;;;;14.45;7.15;;;;;;;8.42;100.00;98334.50;6078251;19;20033;-70
2023/11/04 04:46:24;;;;;;;15.52;7.15;;;;;;;8.40;100.00;98333.81;6079350;19;20485;-69
2023/11/04 04:48:28;;;;;;;17.73;7.70;;;;;;;8.35;100.00;98326.25;6074796;19;20082;-73
2023/11/04 04:50:34;;;;;;;15.98;6.88;;;;;;;8.31;100.00;98322.16;6077563;19;20471;-69
2023/11/04 04:52:42;;;;;;;24.23;7.32;;;;;;;8.34;100.00;98329.78;6077510;19;20492;-70
2023/11/04 04:54:47;;;;;;;13.27;7.88;;;;;;;8.37;100.00;98328.75;6073801;19;20015;-69
2023/11/04 04:56:52;;;;;;;19.13;7.07;;;;;;;8.36;100.00;98322.69;6082284;19;20031;-71
2023/11/04 04:58:54;;;;;;;20.63;7.57;;;;;;;8.31;100.00;98316.94;6077865;19;20057;-70
2023/11/04 05:01:00;;;;;;;22.08;8.25;;;;;;;8.35;100.00;98331.47;6074434;19;20015;-69
2023/11/04 05:03:08;;;;;;;19.63;8.77;;;;;;;8.35;100.00;98312.34;6076971;19;20030;-71
2023/11/04 05:05:14;;;;;;;17.70;7.90;;;;;;;8.34;100.00;98311.47;6079881;19;20018;-69
2023/11/04 05:07:19;;;;;;;17.90;8.20;;;;;;;8.30;100.00;98304.81;6077666;19;20876;-71
2023/11/04 05:09:26;;;;;;;15.68;7.45;;;;;;;8.22;100.00;98307.16;6079499;19;20535;-69
2023/11/04 05:11:31;;;;;;;18.83;7.50;;;;;;;8.23;100.00;98300.94;6077278;19;20011;-72
2023/11/04 05:13:36;;;;;;;13.20;7.20;;;;;;;8.25;100.00;98299.06;6074779;19;20007;-71
2023/11/04 05:15:41;;;;;;;14.52;7.60;;;;;;;8.21;100.00;98294.16;6079437;19;20018;-69
2023/11/04 05:17:45;;;;;;;17.33;6.75;;;;;;;8.21;100.00;98299.41;6077924;19;20090;-70
2023/11/04 05:19:52;;;;;;;18.63;7.13;;;;;;;8.16;100.00;98289.25;6073121;19;20010;-69
2023/11/04 05:21:57;;;;;;;20.85;7.63;;;;;;;8.16;100.00;98291.88;6076207;19;20043;-70
2023/11/04 05:24:02;;;;;;;21.15;8.45;;;;;;;8.17;100.00;98298.78;6078416;19;20032;-70
2023/11/04 05:26:10;;;;;;;16.35;7.10;;;;;;;8.13;100.00;98287.69;6078486;19;20318;-69
2023/11/04 05:28:17;;;;;;;14.98;7.18;;;;;;;8.08;100.00;98289.81;6076165;19;20007;-70
2023/11/04 05:30:22;;;;;;;18.63;7.35;;;;;;;8.18;100.00;98292.59;6074504;19;20003;-69
2023/11/04 05:32:27;;;;;;;17.50;8.23;;;;;;;8.09;100.00;98291.47;6075854;19;20423;-71
2023/11/04 05:34:29;;;;;;;16.92;7.68;;;;;;;8.11;100.00;98278.31;6078368;19;20594;-70
2023/11/04 05:36:34;;;;;;;14.50;7.40;;;;;;;8.07;100.00;98282.91;6078275;19;20466;-70
2023/11/04 05:38:39;;;;;;;21.00;7.28;;;;;;;8.06;100.00;98275.19;6077088;19;20011;-70
2023/11/04 05:40:44;;;;;;;23.77;8.98;;;;;;;8.16;100.00;98275.34;6075348;19;20490;-71
2023/11/04 05:42:52;;;;;;;15.25;8.00;;;;;;;8.13;100.00;98266.75;6077853;19;20010;-71
2023/11/04 05:44:57;;;;;;;17.52;8.95;;;;;;;8.05;100.00;98265.66;6071903;19;20015;-71
2023/11/04 05:47:02;;;;;;;22.05;7.20;;;;;;;8.01;100.00;98265.03;6074718;19;20014;-70
2023/11/04 05:49:07;;;;;;;12.63;6.55;;;;;;;8.03;100.00;98257.06;6068340;19;20010;-70
2023/11/04 05:51:12;;;;;;;16.27;7.60;;;;;;;8.01;100.00;98259.81;6075078;19;20323;-70
2023/11/04 05:53:17;;;;;;;18.35;8.13;;;;;;;7.97;100.00;98254.91;6072055;19;20118;-71
2023/11/04 05:55:23;;;;;;;16.05;7.63;;;;;;;8.00;100.00;98255.50;6076528;19;20160;-70
2023/11/04 05:57:28;;;;;;;20.77;7.85;;;;;;;8.01;100.00;98251.97;6075328;19;20010;-71
2023/11/04 05:59:35;;;;;;;14.50;6.95;;;;;;;8.01;100.00;98248.53;6077232;19;20022;-69
2023/11/04 06:01:37;;;;;;;24.00;7.68;;;;;;;8.02;100.00;98232.69;6074546;19;20014;-70
2023/11/04 06:03:42;;;;;;;22.33;8.70;;;;;;;8.04;100.00;98245.69;6077300;19;20470;-71
2023/11/04 06:05:51;;;;;;;16.23;7.18;;;;;;;8.09;100.00;98243.56;6077500;19;20006;-69
2023/11/04 06:07:56;;;;;;;16.50;7.05;;;;;;;8.10;100.00;98240.84;6076830;19;20010;-69
2023/11/04 06:09:59;;;;;;;15.85;6.60;;;;;;;8.08;100.00;98231.41;6078204;19;20041;-69
2023/11/04 06:12:05;;;;;;;21.27;6.93;;;;;;;8.09;100.00;98230.50;6076935;19;20760;-70
2023/11/04 06:14:10;;;;;;;18.08;6.93;;;;;;;8.10;100.00;98232.16;6078647;19;20038;-69
2023/11/04 06:16:18;;;;;;;16.75;6.93;;;;;;;8.06;100.00;98231.56;6078140;19;20030;-69
2023/11/04 06:18:23;;;;;;;18.02;7.70;;;;;;;8.08;100.00;98227.06;6078730;19;20023;-69
2023/11/04 06:20:28;;;;;;;15.75;6.40;;;;;;;8.08;100.00;98231.41;6075763;19;20007;-70
2023/11/04 06:22:32;;;;;;;20.48;7.03;;;;;;;8.13;100.00;98222.28;6075796;19;20010;-70
2023/11/04 06:24:39;;;;;;;17.65;5.90;;;;;;;8.18;100.00;98227.19;6077572;19;20003;-69
2023/11/04 06:26:44;;;;;;;18.40;7.43;;;;;;;8.14;100.00;98226.59;6077344;19;20025;-73
2023/11/04 06:28:49;;;;;;;18.63;6.10;;;;;;;8.14;100.00;98204.84;6075916;19;20003;-72
2023/11/04 06:30:54;;;;;;;11.52;5.80;;;;;;;8.10;100.00;98216.47;6072095;19;20362;-69
2023/11/04 06:33:02;;;;;;;16.70;6.18;;;;;;;8.10;100.00;98216.47;6067050;19;20016;-69
2023/11/04 06:35:10;;;;;;;18.92;6.75;;;;;;;8.06;100.00;98215.03;6073285;19;20474;-70
2023/11/04 06:37:15;;;;;;;16.65;6.22;;;;;;;8.10;100.00;98219.06;6074586;19;20006;-69
2023/11/04 06:39:21;;;;;;;13.20;6.05;;;;;;;8.16;100.00;98207.31;6073291;19;20004;-69
2023/11/04 06:41:26;;;;;;;17.27;6.45;;;;;;;8.18;100.00;98221.97;6076796;19;20017;-70
2023/11/04 06:43:29;;;;;;;16.98;5.45;;;;;;;8.18;100.00;98224.59;6071392;19;20477;-70
2023/11/04 06:45:34;;;;;;;22.17;6.70;;;;;;;8.18;100.00;98213.28;6074336;19;20365;-69
2023/11/04 06:47:40;;;;;;;17.98;6.38;;;;;;;8.18;100.00;98216.72;6074026;19;20006;-70
2023/11/04 06:49:48;;;;;;;14.50;6.75;;;;;;;8.23;100.00;98219.03;6075040;19;20010;-69
2023/11/04 06:51:53;;;;;;;12.80;6.18;;;;;;;8.25;100.00;98210.13;6077159;19;20361;-71
2023/11/04 06:54:00;;;;;;;15.25;5.80;;;;;;;8.27;100.00;98208.22;6073821;19;20003;-70
2023/11/04 06:56:06;;;;;;;14.55;5.15;;;;;;;8.27;100.00;98213.47;6075880;19;20082;-72
2023/11/04 06:58:11;;;;;;;16.55;5.70;;;;;;;8.26;100.00;98214.38;6073295;19;20003;-69
2023/11/04 07:00:17;;;;;;;14.05;5.53;;;;;;;8.29;100.00;98208.97;6075006;19;20006;-70
2023/11/04 07:02:24;;;;;;;20.88;5.90;;;;;;;8.29;100.00;98214.19;6074561;19;20007;-71
2023/11/04 07:04:29;;;;;;;13.23;5.97;;;;;;;8.30;100.00;98204.56;6074670;19;20077;-71
2023/11/04 07:06:36;;;;;;;15.10;6.05;;;;;;;8.34;100.00;98209.44;6084636;19;20578;-69
2023/11/04 07:08:42;;;;;;;17.20;7.13;;;;;;;8.32;100.00;98198.25;6084013;19;20014;-69
2023/11/04 07:10:48;;;;;;;15.18;6.85;;;;;;;8.34;100.00;98198.13;6083418;19;20450;-68
2023/11/04 07:12:53;;;;;;;24.00;7.22;;;;;;;8.37;100.00;98205.75;6081514;19;20009;-69
2023/11/04 07:14:59;;;;;;;12.48;6.03;;;;;;;8.36;100.00;98204.09;6081875;19;20475;-69
2023/11/04 07:17:04;;;;;;;18.33;6.72;;;;;;;8.36;100.00;98204.94;6082869;19;20570;-70
2023/11/04 07:19:09;;;;;;;21.67;7.45;;;;;;;8.37;100.00;98200.53;6083008;19;20495;-69
2023/11/04 07:21:14;;;;;;;13.85;6.70;;;;;;;8.41;100.00;98185.47;6084516;19;20456;-69
2023/11/04 07:23:20;;;;;;;16.45;7.45;;;;;;;8.44;100.00;98186.06;6083094;19;20019;-69
2023/11/04 07:25:25;;;;;;;23.33;6.72;;;;;;;8.48;100.00;98173.63;6083577;19;20483;-70
2023/11/04 07:27:30;;;;;;;16.05;6.95;;;;;;;8.44;100.00;98169.53;6074338;19;20019;-72
2023/11/04 07:29:35;;;;;;;14.88;6.03;;;;;;;8.45;100.00;98151.13;6079577;19;20019;-70
2023/11/04 07:31:40;;;;;;;9.68;5.13;;;;;;;8.42;100.00;98148.72;6073258;19;20006;-71
2023/11/04 07:33:45;;;;;;;13.55;5.88;;;;;;;8.44;100.00;98152.06;6077895;19;20027;-70
2023/11/04 07:35:47;;;;;;;14.65;7.32;;;;;;;8.44;100.00;98156.47;6075575;19;20007;-70
2023/11/04 07:37:53;;;;;;;12.85;5.53;;;;;;;8.44;100.00;98151.22;6075606;19;20009;-70
2023/11/04 07:40:00;;;;;;;16.13;6.65;;;;;;;8.47;100.00;98158.84;6080309;19;19999;-71
2023/11/04 07:42:05;;;;;;;16.48;5.97;;;;;;;8.47;100.00;98158.84;6082614;19;20010;-69
2023/11/04 07:44:11;;;;;;;17.90;7.07;;;;;;;8.47;100.00;98154.44;6079039;19;20047;-70
2023/11/04 07:46:16;;;;;;;14.75;6.43;;;;;;;8.56;100.00;98156.38;6077850;19;20018;-71
2023/11/04 07:48:21;;;;;;;14.57;6.60;;;;;;;8.58;100.00;98145.78;6075253;19;20142;-71
2023/11/04 07:50:24;;;;;;;15.35;6.30;;;;;;;8.59;100.00;98141.41;6075472;19;20002;-72
2023/11/04 07:52:32;;;;;;;18.85;6.78;;;;;;;8.56;100.00;98132.81;6078180;19;20038;-71
2023/11/04 07:54:49;;;;;;;10.52;6.05;;;;;;;8.53;100.00;98132.19;6074164;19;20019;-71
2023/11/04 07:56:57;;;;;;;16.50;6.88;;;;;;;8.50;100.00;98128.03;6076712;19;20010;-71
2023/11/04 07:59:02;;;;;;;17.25;6.15;;;;;;;8.53;100.00;98119.13;6078958;19;20006;-71
2023/11/04 08:01:08;;;;;;;13.63;6.93;;;;;;;8.52;100.00;98114.84;6079513;19;20074;-73
2023/11/04 08:03:13;;;;;;;13.10;6.90;;;;;;;8.51;100.00;98107.94;6073513;19;20359;-70
2023/11/04 08:05:19;;;;;;;15.52;7.00;;;;;;;8.54;100.00;98102.47;6080176;19;20354;-69
2023/11/04 08:07:24;;;;;;;12.15;7.20;;;;;;;8.56;100.00;98100.59;6075277;19;20450;-69
2023/11/04 08:09:29;;;;;;;12.90;6.40;;;;;;;8.49;100.00;98102.81;6075614;19;20095;-73
2023/11/04 08:11:38;;;;;;;13.60;6.70;;;;;;;8.52;100.00;98096.53;6077466;19;20647;-74
2023/11/04 08:13:46;;;;;;;16.92;6.50;;;;;;;8.52;100.00;98099.13;6076440;19;20258;-72
2023/11/04 08:15:53;;;;;;;14.13;6.65;;;;;;;8.56;100.00;98083.09;6077870;19;20143;-72
2023/11/04 08:17:59;;;;;;;12.00;6.65;;;;;;;8.58;100.00;98080.34;6075799;19;20012;-73
2023/11/04 08:20:08;;;;;;;21.17;8.13;;;;;;;8.58;100.00;98075.09;6079254;19;21652;-72
2023/11/04 08:22:16;;;;;;;15.43;6.68;;;;;;;8.60;100.00;98070.59;6074299;19;20997;-75
2023/11/04 08:24:25;;;;;;;22.30;6.22;;;;;;;8.60;100.00;98060.13;6075656;19;20017;-75
2023/11/04 08:26:28;;;;;;;14.88;5.85;;;;;;;8.63;100.00;98052.03;6078066;19;20003;-71
2023/11/04 08:28:34;;;;;;;15.90;5.00;;;;;;;8.64;100.00;98045.03;6078389;19;20483;-73
2023/11/04 08:30:41;;;;;;;14.15;4.88;;;;;;;8.62;100.00;98042.53;6075065;19;20002;-76
2023/11/04 08:32:48;;;;;;;13.73;4.82;;;;;;;8.66;100.00;98030.00;6076399;19;20011;-74
2023/11/04 08:34:54;;;;;;;10.82;5.05;;;;;;;8.67;100.00;98024.66;6076069;19;20471;-74
2023/11/04 08:36:59;;;;;;;8.05;3.80;;;;;;;8.72;100.00;98022.53;6076422;19;20003;-74
2023/11/04 08:39:06;;;;;;;13.38;4.53;;;;;;;8.75;100.00;98026.69;6078192;19;20010;-74
2023/11/04 08:41:11;;;;;;;13.93;5.13;;;;;;;8.79;100.00;98022.88;6079307;19;20010;-74
2023/11/04 08:43:18;;;;;;;9.27;4.20;;;;;;;8.83;100.00;98015.63;6077887;19;20755;-73
2023/11/04 08:45:24;;;;;;;26.52;5.18;;;;;;;8.86;100.00;98018.00;6074805;19;20010;-72
2023/11/04 08:47:34;;;;;;;9.55;4.78;;;;;;;8.90;100.00;98024.63;6078732;19;20439;-73
2023/11/04 08:49:39;;;;;;;10.60;3.47;;;;;;;8.94;100.00;98020.84;6077041;19;20106;-71
2023/11/04 08:51:47;;;;;;;13.15;3.78;;;;;;;8.92;100.00;98034.03;6076287;19;20014;-72
2023/11/04 08:53:54;;;;;;;11.45;4.00;;;;;;;8.85;100.00;98017.16;6073802;19;20054;-74
2023/11/04 08:56:01;;;;;;;9.13;3.97;;;;;;;8.92;100.00;98012.25;6077384;19;20282;-74
2023/11/04 08:58:06;;;;;;;12.45;3.05;;;;;;;8.89;100.00;98017.75;6077699;19;20003;-74
2023/11/04 09:00:12;;;;;;;5.93;3.03;;;;;;;8.96;100.00;98017.16;6076283;19;20003;-74
2023/11/04 09:02:17;;;;;;;7.15;3.38;;;;;;;9.10;100.00;97996.88;6077726;19;20017;-72
2023/11/04 09:04:25;;;;;;;12.90;5.03;;;;;;;9.08;100.00;97989.13;6072428;19;20041;-72
2023/11/04 09:06:32;;;;;;;16.55;4.03;;;;;;;9.27;100.00;97993.75;6075861;19;20010;-73
2023/11/04 09:08:34;;;;;;;9.82;3.72;;;;;;;9.40;100.00;97991.81;6076303;19;20168;-73
2023/11/04 09:10:40;;;;;;;;;;;;;;;9.34;100.00;97979.19;6076463;19;20013;-74
2023/11/04 09:12:45;;;;;;;8.13;3.13;;;;;;;9.37;100.00;97972.84;6076407;19;19911;-72
2023/11/04 09:14:50;;;;;;;8.15;3.17;;;;;;;9.39;100.00;97976.19;6077152;19;20016;-74
2023/11/04 09:16:55;;;;;;;13.10;3.65;;;;;;;9.28;100.00;97976.25;6076470;19;20003;-72
2023/11/04 09:19:01;;;;;;;9.25;3.13;;;;;;;9.27;100.00;97964.06;6076263;19;20025;-72
2023/11/04 09:21:09;;;;;;;8.32;2.88;;;;;;;9.36;100.00;97955.47;6077447;19;20019;-72
2023/11/04 09:23:18;;;;;;;7.80;3.28;;;;;;;9.38;100.00;97951.78;6076349;19;20029;-71
2023/11/04 09:25:24;;;;;;;8.20;2.88;;;;;;;9.43;100.00;97970.56;6074631;19;20783;-72
2023/11/04 09:27:32;;;;;;;7.13;2.75;;;;;;;9.32;100.00;97947.03;6073854;19;20002;-73
2023/11/04 09:29:37;;;;;;;10.65;2.92;;;;;;;9.31;100.00;97957.63;6075432;19;20463;-75
2023/11/04 09:31:39;;;;;;;12.73;3.10;;;;;;;9.33;100.00;97945.25;6072364;19;21002;-74
2023/11/04 09:33:44;;;;;;;17.67;3.38;;;;;;;9.32;100.00;97943.56;6078385;19;20002;-72
2023/11/04 09:35:50;;;;;;;6.88;3.15;;;;;;;9.30;100.00;97941.09;6073421;19;20042;-75
2023/11/04 09:37:57;;;;;;;7.93;2.67;;;;;;;9.28;100.00;97945.63;6078225;19;20023;-74
2023/11/04 09:40:03;;;;;;;7.68;2.85;;;;;;;9.22;100.00;97925.16;6081134;19;20340;-72
2023/11/04 09:42:12;;;;;;;9.73;2.92;;;;;;;9.22;100.00;97925.16;6077603;19;20039;-72
2023/11/04 09:44:20;;;;;;;7.47;2.80;;;;;;;9.27;100.00;97924.75;6082982;19;20034;-76
2023/11/04 09:46:26;;;;;;;7.82;3.90;;;;;;;9.32;100.00;97926.06;6083526;19;20006;-75